sensor_id;sensor_type;location;lat;lon;timestamp;pressure;altitude;pressure_sealevel;temperature;humidity
34586;BME280;20816;50.950;11.108;2023-06-22T00:01:19;98708.38;;;19.98;100.00
34586;BME280;20816;50.950;11.108;2023-06-22T00:03:46;98729.31;;;19.90;100.00
34586;BME280;20816;50.950;11.108;2023-06-22T00:06:13;98726.47;;;19.77;100.00
34586;BME280;20816;50.950;11.108;2023-06-22T00:08:40;98726.22;;;19.81;100.00
34586;BME280;20816;50.950;11.108;2023-06-22T00:11:07;98729.78;;;19.66;100.00
34586;BME280;20816;50.950;11.108;2023-06-22T00:13:33;98729.78;;;19.66;100.00
34586;BME280;20816;50.950;11.108;2023-06-22T00:16:00;98721.84;;;19.65;100.00
34586;BME280;20816;50.950;11.108;2023-06-22T00:18:27;98714.41;;;19.54;100.00
34586;BME280;20816;50.950;11.108;2023-06-22T00:20:55;98710.56;;;19.44;100.00
34586;BME280;20816;50.950;11.108;2023-06-22T00:23:25;98712.78;;;19.20;100.00
34586;BME280;20816;50.950;11.108;2023-06-22T00:25:52;98709.44;;;19.16;100.00
34586;BME280;20816;50.950;11.108;2023-06-22T00:28:19;98722.13;;;19.11;100.00
34586;BME280;20816;50.950;11.108;2023-06-22T00:30:46;98718.88;;;19.06;100.00
34586;BME280;20816;50.950;11.108;2023-06-22T00:33:12;98726.16;;;19.02;100.00
34586;BME280;20816;50.950;11.108;2023-06-22T00:35:39;98727.28;;;18.98;100.00
34586;BME280;20816;50.950;11.108;2023-06-22T00:38:07;98715.91;;;18.95;100.00
34586;BME280;20816;50.950;11.108;2023-06-22T00:40:35;98702.88;;;18.90;100.00
34586;BME280;20816;50.950;11.108;2023-06-22T00:43:05;98700.44;;;18.86;100.00
34586;BME280;20816;50.950;11.108;2023-06-22T00:45:32;98707.03;;;18.79;100.00
34586;BME280;20816;50.950;11.108;2023-06-22T00:48:00;98699.03;;;18.79;100.00
34586;BME280;20816;50.950;11.108;2023-06-22T00:50:29;98697.63;;;18.71;100.00
34586;BME280;20816;50.950;11.108;2023-06-22T00:53:05;98693.63;;;18.63;100.00
34586;BME280;20816;50.950;11.108;2023-06-22T00:55:38;98708.75;;;18.62;100.00
34586;BME280;20816;50.950;11.108;2023-06-22T00:58:08;98704.84;;;18.52;100.00
34586;BME280;20816;50.950;11.108;2023-06-22T01:00:38;98699.53;;;18.52;100.00
34586;BME280;20816;50.950;11.108;2023-06-22T01:03:05;98696.22;;;18.64;100.00
34586;BME280;20816;50.950;11.108;2023-06-22T01:05:37;98695.84;;;18.72;100.00
34586;BME280;20816;50.950;11.108;2023-06-22T01:08:22;98703.41;;;18.62;100.00
34586;BME280;20816;50.950;11.108;2023-06-22T01:11:18;98693.63;;;18.63;100.00
34586;BME280;20816;50.950;11.108;2023-06-22T01:16:38;98696.97;;;18.51;100.00
34586;BME280;20816;50.950;11.108;2023-06-22T01:19:34;98700.63;;;18.48;100.00
34586;BME280;20816;50.950;11.108;2023-06-22T01:22:03;98703.00;;;18.37;100.00
34586;BME280;20816;50.950;11.108;2023-06-22T01:24:45;98699.56;;;18.35;100.00
34586;BME280;20816;50.950;11.108;2023-06-22T01:27:40;98711.63;;;18.25;100.00
34586;BME280;20816;50.950;11.108;2023-06-22T01:30:16;98702.22;;;18.17;100.00
34586;BME280;20816;50.950;11.108;2023-06-22T01:32:43;98696.72;;;18.20;100.00
34586;BME280;20816;50.950;11.108;2023-06-22T01:35:11;98692.53;;;18.16;100.00
34586;BME280;20816;50.950;11.108;2023-06-22T01:37:39;98681.06;;;18.14;100.00
34586;BME280;20816;50.950;11.108;2023-06-22T01:40:08;98678.28;;;18.17;100.00
34586;BME280;20816;50.950;11.108;2023-06-22T01:42:36;98682.56;;;18.20;100.00
34586;BME280;20816;50.950;11.108;2023-06-22T01:45:05;98674.81;;;18.15;100.00
34586;BME280;20816;50.950;11.108;2023-06-22T01:47:33;98659.09;;;18.11;100.00
34586;BME280;20816;50.950;11.108;2023-06-22T01:50:00;98657.22;;;18.13;100.00
34586;BME280;20816;50.950;11.108;2023-06-22T01:52:27;98652.94;;;18.10;100.00
34586;BME280;20816;50.950;11.108;2023-06-22T01:54:54;98655.72;;;18.07;100.00
34586;BME280;20816;50.950;11.108;2023-06-22T01:57:21;98661.44;;;18.00;100.00
34586;BME280;20816;50.950;11.108;2023-06-22T02:00:04;98660.91;;;17.93;100.00
34586;BME280;20816;50.950;11.108;2023-06-22T02:02:39;98652.28;;;17.88;100.00
34586;BME280;20816;50.950;11.108;2023-06-22T02:05:09;98652.13;;;17.91;100.00
34586;BME280;20816;50.950;11.108;2023-06-22T02:08:01;98636.81;;;17.96;100.00
34586;BME280;20816;50.950;11.108;2023-06-22T02:10:29;98625.16;;;17.99;100.00
34586;BME280;20816;50.950;11.108;2023-06-22T02:12:58;98631.78;;;18.07;100.00
34586;BME280;20816;50.950;11.108;2023-06-22T02:15:25;98651.81;;;18.14;100.00
34586;BME280;20816;50.950;11.108;2023-06-22T02:17:52;98646.66;;;18.11;100.00
34586;BME280;20816;50.950;11.108;2023-06-22T02:20:19;98634.63;;;18.04;100.00
34586;BME280;20816;50.950;11.108;2023-06-22T02:22:46;98634.78;;;18.01;100.00
34586;BME280;20816;50.950;11.108;2023-06-22T02:25:13;98621.47;;;18.01;100.00
34586;BME280;20816;50.950;11.108;2023-06-22T02:27:41;98634.78;;;18.18;100.00
34586;BME280;20816;50.950;11.108;2023-06-22T02:30:08;98646.81;;;18.26;100.00
34586;BME280;20816;50.950;11.108;2023-06-22T02:32:36;98652.75;;;18.13;100.00
34586;BME280;20816;50.950;11.108;2023-06-22T02:35:03;98665.59;;;18.05;100.00
34586;BME280;20816;50.950;11.108;2023-06-22T02:37:33;98676.69;;;17.96;100.00
34586;BME280;20816;50.950;11.108;2023-06-22T02:39:59;98672.53;;;17.90;100.00
34586;BME280;20816;50.950;11.108;2023-06-22T02:42:26;98678.88;;;17.88;100.00
34586;BME280;20816;50.950;11.108;2023-06-22T02:44:53;98672.63;;;17.89;100.00
34586;BME280;20816;50.950;11.108;2023-06-22T02:47:19;98671.59;;;17.91;100.00
34586;BME280;20816;50.950;11.108;2023-06-22T02:49:46;98680.31;;;17.95;100.00
34586;BME280;20816;50.950;11.108;2023-06-22T02:52:13;98698.84;;;17.97;100.00
34586;BME280;20816;50.950;11.108;2023-06-22T02:54:40;98702.22;;;18.00;100.00
34586;BME280;20816;50.950;11.108;2023-06-22T02:57:06;98702.53;;;17.94;100.00
34586;BME280;20816;50.950;11.108;2023-06-22T02:59:40;98715.81;;;17.94;100.00
34586;BME280;20816;50.950;11.108;2023-06-22T03:02:08;98729.31;;;17.89;100.00
34586;BME280;20816;50.950;11.108;2023-06-22T03:04:35;98746.47;;;17.84;100.00
34586;BME280;20816;50.950;11.108;2023-06-22T03:07:02;98748.03;;;17.88;100.00
34586;BME280;20816;50.950;11.108;2023-06-22T03:09:30;98755.47;;;17.99;100.00
34586;BME280;20816;50.950;11.108;2023-06-22T03:11:57;98767.53;;;18.06;100.00
34586;BME280;20816;50.950;11.108;2023-06-22T03:14:23;98777.97;;;18.10;100.00
34586;BME280;20816;50.950;11.108;2023-06-22T03:16:50;98800.09;;;18.11;100.00
34586;BME280;20816;50.950;11.108;2023-06-22T03:19:17;98808.69;;;18.16;100.00
34586;BME280;20816;50.950;11.108;2023-06-22T03:21:43;98807.06;;;18.13;100.00
34586;BME280;20816;50.950;11.108;2023-06-22T03:24:10;98818.19;;;18.21;100.00
34586;BME280;20816;50.950;11.108;2023-06-22T03:26:37;98817.25;;;18.23;100.00
34586;BME280;20816;50.950;11.108;2023-06-22T03:29:04;98807.88;;;18.33;100.00
34586;BME280;20816;50.950;11.108;2023-06-22T03:31:31;98804.81;;;18.40;100.00
34586;BME280;20816;50.950;11.108;2023-06-22T03:33:58;98797.84;;;18.55;100.00
34586;BME280;20816;50.950;11.108;2023-06-22T03:36:24;98791.94;;;18.67;100.00
34586;BME280;20816;50.950;11.108;2023-06-22T03:38:51;98798.34;;;18.81;100.00
34586;BME280;20816;50.950;11.108;2023-06-22T03:41:18;98789.97;;;18.88;100.00
34586;BME280;20816;50.950;11.108;2023-06-22T03:43:45;98790.34;;;18.98;100.00
34586;BME280;20816;50.950;11.108;2023-06-22T03:46:11;98793.63;;;19.03;100.00
34586;BME280;20816;50.950;11.108;2023-06-22T03:48:38;98795.03;;;19.10;100.00
34586;BME280;20816;50.950;11.108;2023-06-22T03:51:05;98786.84;;;19.13;100.00
34586;BME280;20816;50.950;11.108;2023-06-22T03:53:32;98778.72;;;19.16;100.00
34586;BME280;20816;50.950;11.108;2023-06-22T03:55:59;98764.25;;;19.20;100.00
34586;BME280;20816;50.950;11.108;2023-06-22T03:58:26;98743.75;;;19.22;100.00
34586;BME280;20816;50.950;11.108;2023-06-22T04:00:53;98726.63;;;19.26;100.00
34586;BME280;20816;50.950;11.108;2023-06-22T04:03:20;98719.25;;;19.31;100.00
34586;BME280;20816;50.950;11.108;2023-06-22T04:05:47;98707.97;;;19.26;100.00
34586;BME280;20816;50.950;11.108;2023-06-22T04:08:15;98688.69;;;19.21;100.00
34586;BME280;20816;50.950;11.108;2023-06-22T04:10:42;98677.97;;;19.23;100.00
34586;BME280;20816;50.950;11.108;2023-06-22T04:13:09;98655.44;;;19.28;100.00
34586;BME280;20816;50.950;11.108;2023-06-22T04:15:35;98628.00;;;19.26;100.00
34586;BME280;20816;50.950;11.108;2023-06-22T04:18:02;98631.88;;;19.21;100.00
34586;BME280;20816;50.950;11.108;2023-06-22T04:20:31;98638.25;;;19.34;100.00
34586;BME280;20816;50.950;11.108;2023-06-22T04:22:58;98635.66;;;19.32;100.00
34586;BME280;20816;50.950;11.108;2023-06-22T04:25:25;98636.84;;;19.43;100.00
34586;BME280;20816;50.950;11.108;2023-06-22T04:27:52;98637.72;;;19.59;100.00
34586;BME280;20816;50.950;11.108;2023-06-22T04:30:18;98632.72;;;19.69;100.00
34586;BME280;20816;50.950;11.108;2023-06-22T04:32:45;98639.31;;;19.77;100.00
34586;BME280;20816;50.950;11.108;2023-06-22T04:35:24;98644.72;;;19.92;100.00
34586;BME280;20816;50.950;11.108;2023-06-22T04:37:53;98649.84;;;19.95;100.00
34586;BME280;20816;50.950;11.108;2023-06-22T04:40:24;98640.72;;;19.99;100.00
34586;BME280;20816;50.950;11.108;2023-06-22T04:42:52;98637.88;;;20.02;100.00
34586;BME280;20816;50.950;11.108;2023-06-22T04:45:20;98627.78;;;20.07;100.00
34586;BME280;20816;50.950;11.108;2023-06-22T04:47:48;98623.09;;;20.10;100.00
34586;BME280;20816;50.950;11.108;2023-06-22T04:50:14;98614.09;;;20.13;100.00
34586;BME280;20816;50.950;11.108;2023-06-22T04:52:41;98607.31;;;20.22;100.00
34586;BME280;20816;50.950;11.108;2023-06-22T04:55:08;98608.34;;;20.19;100.00
34586;BME280;20816;50.950;11.108;2023-06-22T04:57:35;98599.81;;;20.28;100.00
34586;BME280;20816;50.950;11.108;2023-06-22T05:00:02;98603.97;;;20.18;100.00
34586;BME280;20816;50.950;11.108;2023-06-22T05:02:39;98619.63;;;20.24;100.00
34586;BME280;20816;50.950;11.108;2023-06-22T05:05:06;98615.03;;;20.26;100.00
34586;BME280;20816;50.950;11.108;2023-06-22T05:07:34;98609.47;;;20.45;100.00
34586;BME280;20816;50.950;11.108;2023-06-22T05:10:04;98624.63;;;20.59;100.00
34586;BME280;20816;50.950;11.108;2023-06-22T05:12:31;98620.81;;;20.63;100.00
34586;BME280;20816;50.950;11.108;2023-06-22T05:14:58;98625.59;;;20.72;100.00
34586;BME280;20816;50.950;11.108;2023-06-22T05:17:25;98628.63;;;20.94;100.00
34586;BME280;20816;50.950;11.108;2023-06-22T05:19:52;98631.91;;;21.26;100.00
34586;BME280;20816;50.950;11.108;2023-06-22T05:22:19;98637.34;;;21.39;100.00
34586;BME280;20816;50.950;11.108;2023-06-22T05:24:46;98634.09;;;21.88;100.00
34586;BME280;20816;50.950;11.108;2023-06-22T05:27:13;98628.81;;;22.14;100.00
34586;BME280;20816;50.950;11.108;2023-06-22T05:29:40;98633.75;;;22.45;100.00
34586;BME280;20816;50.950;11.108;2023-06-22T05:32:07;98635.28;;;22.49;100.00
34586;BME280;20816;50.950;11.108;2023-06-22T05:34:34;98629.25;;;22.58;100.00
34586;BME280;20816;50.950;11.108;2023-06-22T05:37:02;98638.69;;;22.77;100.00
34586;BME280;20816;50.950;11.108;2023-06-22T05:39:29;98637.28;;;23.46;97.55
34586;BME280;20816;50.950;11.108;2023-06-22T05:41:55;98643.00;;;23.53;96.80
34586;BME280;20816;50.950;11.108;2023-06-22T05:44:22;98640.59;;;23.37;96.78
34586;BME280;20816;50.950;11.108;2023-06-22T05:46:49;98644.25;;;23.36;96.48
34586;BME280;20816;50.950;11.108;2023-06-22T05:49:16;98644.59;;;23.31;98.12
34586;BME280;20816;50.950;11.108;2023-06-22T05:51:43;98645.13;;;22.74;100.00
34586;BME280;20816;50.950;11.108;2023-06-22T05:54:10;98647.38;;;22.42;100.00
34586;BME280;20816;50.950;11.108;2023-06-22T05:56:36;98649.94;;;22.44;100.00
34586;BME280;20816;50.950;11.108;2023-06-22T05:59:04;98648.53;;;22.38;100.00
34586;BME280;20816;50.950;11.108;2023-06-22T06:01:31;98650.78;;;22.31;100.00
34586;BME280;20816;50.950;11.108;2023-06-22T06:04:05;98653.44;;;22.31;100.00
34586;BME280;20816;50.950;11.108;2023-06-22T06:06:34;98660.75;;;22.17;100.00
34586;BME280;20816;50.950;11.108;2023-06-22T06:09:04;98662.25;;;22.33;100.00
34586;BME280;20816;50.950;11.108;2023-06-22T06:11:31;98666.22;;;22.28;100.00
34586;BME280;20816;50.950;11.108;2023-06-22T06:13:58;98673.84;;;22.34;100.00
34586;BME280;20816;50.950;11.108;2023-06-22T06:16:24;98673.69;;;22.23;100.00
34586;BME280;20816;50.950;11.108;2023-06-22T06:18:51;98663.22;;;22.32;100.00
34586;BME280;20816;50.950;11.108;2023-06-22T06:21:20;98661.94;;;22.38;100.00
34586;BME280;20816;50.950;11.108;2023-06-22T06:23:46;98664.75;;;22.49;100.00
34586;BME280;20816;50.950;11.108;2023-06-22T06:26:13;98670.19;;;22.60;100.00
34586;BME280;20816;50.950;11.108;2023-06-22T06:28:43;98666.09;;;22.80;100.00
34586;BME280;20816;50.950;11.108;2023-06-22T06:31:10;98663.78;;;23.01;100.00
34586;BME280;20816;50.950;11.108;2023-06-22T06:33:38;98656.47;;;23.03;99.78
34586;BME280;20816;50.950;11.108;2023-06-22T06:36:05;98664.09;;;23.46;98.88
34586;BME280;20816;50.950;11.108;2023-06-22T06:38:34;98663.63;;;23.65;97.51
34586;BME280;20816;50.950;11.108;2023-06-22T06:41:01;98652.69;;;24.03;95.30
34586;BME280;20816;50.950;11.108;2023-06-22T06:43:28;98654.16;;;24.07;95.38
34586;BME280;20816;50.950;11.108;2023-06-22T06:45:55;98657.44;;;24.35;94.21
34586;BME280;20816;50.950;11.108;2023-06-22T06:48:22;98651.75;;;24.73;92.51
34586;BME280;20816;50.950;11.108;2023-06-22T06:50:48;98645.31;;;25.20;91.44
34586;BME280;20816;50.950;11.108;2023-06-22T06:53:15;98645.09;;;25.55;89.19
34586;BME280;20816;50.950;11.108;2023-06-22T06:55:42;98643.94;;;25.80;86.91
34586;BME280;20816;50.950;11.108;2023-06-22T06:58:08;98644.97;;;25.68;87.84
34586;BME280;20816;50.950;11.108;2023-06-22T07:00:36;98645.63;;;25.92;87.76
34586;BME280;20816;50.950;11.108;2023-06-22T07:03:03;98644.00;;;26.22;85.94
34586;BME280;20816;50.950;11.108;2023-06-22T07:05:30;98635.50;;;26.59;85.09
34586;BME280;20816;50.950;11.108;2023-06-22T07:07:57;98630.53;;;26.22;85.05
34586;BME280;20816;50.950;11.108;2023-06-22T07:10:24;98624.34;;;26.73;83.92
34586;BME280;20816;50.950;11.108;2023-06-22T07:12:50;98621.19;;;26.98;82.26
34586;BME280;20816;50.950;11.108;2023-06-22T07:15:17;98632.44;;;26.73;83.95
34586;BME280;20816;50.950;11.108;2023-06-22T07:17:44;98636.97;;;26.31;85.80
34586;BME280;20816;50.950;11.108;2023-06-22T07:20:11;98627.72;;;26.44;84.69
34586;BME280;20816;50.950;11.108;2023-06-22T07:22:40;98619.03;;;26.62;84.95
34586;BME280;20816;50.950;11.108;2023-06-22T07:25:08;98614.66;;;26.70;84.33
34586;BME280;20816;50.950;11.108;2023-06-22T07:28:01;98612.28;;;26.77;84.28
34586;BME280;20816;50.950;11.108;2023-06-22T07:30:29;98607.94;;;27.26;82.77
34586;BME280;20816;50.950;11.108;2023-06-22T07:32:58;98607.00;;;27.46;82.46
34586;BME280;20816;50.950;11.108;2023-06-22T07:35:24;98607.19;;;27.83;80.60
34586;BME280;20816;50.950;11.108;2023-06-22T07:37:51;98598.66;;;28.07;79.83
34586;BME280;20816;50.950;11.108;2023-06-22T07:40:18;98605.19;;;28.34;78.19
34586;BME280;20816;50.950;11.108;2023-06-22T07:42:45;98605.75;;;28.28;78.19
34586;BME280;20816;50.950;11.108;2023-06-22T07:45:14;98595.38;;;28.80;77.15
34586;BME280;20816;50.950;11.108;2023-06-22T07:47:41;98603.56;;;28.97;75.99
34586;BME280;20816;50.950;11.108;2023-06-22T07:50:08;98608.72;;;28.91;77.16
34586;BME280;20816;50.950;11.108;2023-06-22T07:52:36;98598.56;;;29.48;74.26
34586;BME280;20816;50.950;11.108;2023-06-22T07:55:03;98601.97;;;29.77;72.65
34586;BME280;20816;50.950;11.108;2023-06-22T07:57:30;98586.41;;;30.15;72.04
34586;BME280;20816;50.950;11.108;2023-06-22T08:00:02;98593.38;;;30.43;70.40
34586;BME280;20816;50.950;11.108;2023-06-22T08:02:32;98591.66;;;30.42;70.15
34586;BME280;20816;50.950;11.108;2023-06-22T08:04:59;98579.47;;;30.03;71.24
34586;BME280;20816;50.950;11.108;2023-06-22T08:07:45;98580.72;;;30.26;71.12
34586;BME280;20816;50.950;11.108;2023-06-22T08:10:14;98575.22;;;30.18;70.67
34586;BME280;20816;50.950;11.108;2023-06-22T08:12:41;98573.97;;;30.30;71.25
34586;BME280;20816;50.950;11.108;2023-06-22T08:15:08;98572.00;;;30.40;70.92
34586;BME280;20816;50.950;11.108;2023-06-22T08:17:39;98564.75;;;30.49;70.21
34586;BME280;20816;50.950;11.108;2023-06-22T08:20:07;98572.47;;;30.88;68.63
34586;BME280;20816;50.950;11.108;2023-06-22T08:22:41;98560.75;;;30.61;68.78
34586;BME280;20816;50.950;11.108;2023-06-22T08:25:08;98565.72;;;30.66;67.58
34586;BME280;20816;50.950;11.108;2023-06-22T08:27:36;98567.16;;;30.86;67.27
34586;BME280;20816;50.950;11.108;2023-06-22T08:30:03;98563.59;;;31.20;66.91
34586;BME280;20816;50.950;11.108;2023-06-22T08:32:30;98560.44;;;30.98;67.23
34586;BME280;20816;50.950;11.108;2023-06-22T08:34:59;98553.78;;;30.85;66.76
34586;BME280;20816;50.950;11.108;2023-06-22T08:37:26;98553.97;;;30.91;66.49
34586;BME280;20816;50.950;11.108;2023-06-22T08:40:04;98551.75;;;31.29;66.49
34586;BME280;20816;50.950;11.108;2023-06-22T08:42:39;98554.88;;;31.67;65.07
34586;BME280;20816;50.950;11.108;2023-06-22T08:45:07;98549.53;;;31.24;65.44
34586;BME280;20816;50.950;11.108;2023-06-22T08:47:34;98551.81;;;31.11;65.50
34586;BME280;20816;50.950;11.108;2023-06-22T08:50:01;98546.38;;;31.45;65.47
34586;BME280;20816;50.950;11.108;2023-06-22T08:52:30;98548.34;;;31.27;66.18
34586;BME280;20816;50.950;11.108;2023-06-22T08:54:57;98543.25;;;31.24;65.67
34586;BME280;20816;50.950;11.108;2023-06-22T08:57:27;98537.09;;;31.14;67.00
34586;BME280;20816;50.950;11.108;2023-06-22T08:59:54;98552.09;;;31.34;67.46
34586;BME280;20816;50.950;11.108;2023-06-22T09:02:28;98542.84;;;31.19;65.69
34586;BME280;20816;50.950;11.108;2023-06-22T09:04:58;98537.53;;;31.51;65.93
34586;BME280;20816;50.950;11.108;2023-06-22T09:07:25;98538.03;;;31.47;65.31
34586;BME280;20816;50.950;11.108;2023-06-22T09:09:52;98537.88;;;31.48;65.33
34586;BME280;20816;50.950;11.108;2023-06-22T09:12:20;98537.53;;;31.76;65.09
34586;BME280;20816;50.950;11.108;2023-06-22T09:14:49;98537.56;;;32.00;63.32
34586;BME280;20816;50.950;11.108;2023-06-22T09:17:16;98537.53;;;32.25;63.23
34586;BME280;20816;50.950;11.108;2023-06-22T09:19:42;98527.88;;;32.06;64.34
34586;BME280;20816;50.950;11.108;2023-06-22T09:22:09;98524.34;;;31.81;64.48
34586;BME280;20816;50.950;11.108;2023-06-22T09:24:36;98517.34;;;32.19;64.27
34586;BME280;20816;50.950;11.108;2023-06-22T09:27:03;98525.34;;;31.96;64.50
34586;BME280;20816;50.950;11.108;2023-06-22T09:29:29;98516.66;;;31.76;64.31
34586;BME280;20816;50.950;11.108;2023-06-22T09:32:00;98520.25;;;32.01;63.34
34586;BME280;20816;50.950;11.108;2023-06-22T09:34:27;98513.38;;;32.30;64.20
34586;BME280;20816;50.950;11.108;2023-06-22T09:36:54;98502.84;;;32.43;63.13
34586;BME280;20816;50.950;11.108;2023-06-22T09:39:21;98504.41;;;32.38;63.34
34586;BME280;20816;50.950;11.108;2023-06-22T09:41:48;98500.31;;;32.17;63.66
34586;BME280;20816;50.950;11.108;2023-06-22T09:44:15;98506.28;;;32.13;64.15
34586;BME280;20816;50.950;11.108;2023-06-22T09:46:41;98510.31;;;32.25;62.98
34586;BME280;20816;50.950;11.108;2023-06-22T09:49:08;98499.47;;;32.08;63.76
34586;BME280;20816;50.950;11.108;2023-06-22T09:51:35;98498.47;;;32.34;63.49
34586;BME280;20816;50.950;11.108;2023-06-22T09:54:02;98495.84;;;32.96;61.75
34586;BME280;20816;50.950;11.108;2023-06-22T09:56:28;98491.25;;;32.49;63.48
34586;BME280;20816;50.950;11.108;2023-06-22T09:58:56;98500.31;;;32.81;62.98
34586;BME280;20816;50.950;11.108;2023-06-22T10:01:42;98498.00;;;32.70;62.44
34586;BME280;20816;50.950;11.108;2023-06-22T10:04:09;98495.16;;;32.55;63.21
34586;BME280;20816;50.950;11.108;2023-06-22T10:06:36;98494.44;;;32.61;61.95
34586;BME280;20816;50.950;11.108;2023-06-22T10:09:07;98507.41;;;32.59;61.51
34586;BME280;20816;50.950;11.108;2023-06-22T10:11:34;98475.19;;;33.10;61.11
34586;BME280;20816;50.950;11.108;2023-06-22T10:14:01;98477.47;;;33.52;60.67
34586;BME280;20816;50.950;11.108;2023-06-22T10:16:31;98466.41;;;33.68;59.59
34586;BME280;20816;50.950;11.108;2023-06-22T10:18:57;98467.44;;;33.67;60.90
34586;BME280;20816;50.950;11.108;2023-06-22T10:21:24;98477.00;;;32.86;60.19
34586;BME280;20816;50.950;11.108;2023-06-22T10:23:53;98468.88;;;32.31;61.85
34586;BME280;20816;50.950;11.108;2023-06-22T10:26:20;98474.69;;;32.12;63.15
34586;BME280;20816;50.950;11.108;2023-06-22T10:28:46;98476.44;;;32.60;61.48
34586;BME280;20816;50.950;11.108;2023-06-22T10:31:13;98473.31;;;32.71;61.35
34586;BME280;20816;50.950;11.108;2023-06-22T10:33:40;98470.13;;;32.59;60.89
34586;BME280;20816;50.950;11.108;2023-06-22T10:36:10;98470.53;;;32.40;61.41
34586;BME280;20816;50.950;11.108;2023-06-22T10:38:37;98458.38;;;32.98;61.01
34586;BME280;20816;50.950;11.108;2023-06-22T10:41:04;98457.56;;;33.21;60.90
34586;BME280;20816;50.950;11.108;2023-06-22T10:43:31;98459.88;;;33.32;61.22
34586;BME280;20816;50.950;11.108;2023-06-22T10:45:57;98460.34;;;33.12;59.84
34586;BME280;20816;50.950;11.108;2023-06-22T10:48:24;98454.66;;;32.99;60.48
34586;BME280;20816;50.950;11.108;2023-06-22T10:50:51;98449.41;;;33.43;59.31
34586;BME280;20816;50.950;11.108;2023-06-22T10:53:17;98448.00;;;33.25;59.65
34586;BME280;20816;50.950;11.108;2023-06-22T10:55:44;98446.03;;;32.79;60.81
34586;BME280;20816;50.950;11.108;2023-06-22T10:58:22;98451.56;;;33.02;57.99
34586;BME280;20816;50.950;11.108;2023-06-22T11:00:49;98449.72;;;33.49;58.69
34586;BME280;20816;50.950;11.108;2023-06-22T11:03:15;98452.88;;;34.13;57.64
34586;BME280;20816;50.950;11.108;2023-06-22T11:05:42;98451.00;;;33.98;56.36
34586;BME280;20816;50.950;11.108;2023-06-22T11:08:09;98448.75;;;34.32;57.18
34586;BME280;20816;50.950;11.108;2023-06-22T11:10:36;98439.16;;;34.50;57.23
34586;BME280;20816;50.950;11.108;2023-06-22T11:13:03;98435.31;;;34.15;57.30
34586;BME280;20816;50.950;11.108;2023-06-22T11:15:30;98432.19;;;33.89;57.22
34586;BME280;20816;50.950;11.108;2023-06-22T11:17:57;98429.59;;;33.72;56.97
34586;BME280;20816;50.950;11.108;2023-06-22T11:20:24;98422.81;;;33.23;58.43
34586;BME280;20816;50.950;11.108;2023-06-22T11:22:51;98419.78;;;33.17;57.72
34586;BME280;20816;50.950;11.108;2023-06-22T11:25:18;98419.53;;;33.88;57.32
34586;BME280;20816;50.950;11.108;2023-06-22T11:27:44;98410.84;;;34.22;57.10
34586;BME280;20816;50.950;11.108;2023-06-22T11:30:11;98408.69;;;34.47;56.93
34586;BME280;20816;50.950;11.108;2023-06-22T11:32:38;98399.84;;;35.17;55.32
34586;BME280;20816;50.950;11.108;2023-06-22T11:35:05;98407.00;;;35.18;54.25
34586;BME280;20816;50.950;11.108;2023-06-22T11:37:31;98409.63;;;35.48;53.92
34586;BME280;20816;50.950;11.108;2023-06-22T11:39:58;98394.44;;;35.24;53.90
34586;BME280;20816;50.950;11.108;2023-06-22T11:42:33;98397.28;;;34.43;55.65
34586;BME280;20816;50.950;11.108;2023-06-22T11:45:01;98382.50;;;34.38;56.50
34586;BME280;20816;50.950;11.108;2023-06-22T11:47:29;98376.56;;;34.19;55.67
34586;BME280;20816;50.950;11.108;2023-06-22T11:49:56;98375.63;;;33.83;56.43
34586;BME280;20816;50.950;11.108;2023-06-22T11:52:22;98374.59;;;33.46;57.43
34586;BME280;20816;50.950;11.108;2023-06-22T11:54:49;98363.94;;;33.36;57.55
34586;BME280;20816;50.950;11.108;2023-06-22T11:57:16;98362.44;;;33.34;57.81
34586;BME280;20816;50.950;11.108;2023-06-22T11:59:42;98365.81;;;33.36;57.92
34586;BME280;20816;50.950;11.108;2023-06-22T12:02:09;98353.91;;;33.37;57.65
34586;BME280;20816;50.950;11.108;2023-06-22T12:04:36;98348.78;;;33.19;57.87
34586;BME280;20816;50.950;11.108;2023-06-22T12:07:03;98348.31;;;33.53;56.83
34586;BME280;20816;50.950;11.108;2023-06-22T12:09:30;98342.66;;;33.40;57.04
34586;BME280;20816;50.950;11.108;2023-06-22T12:11:57;98342.66;;;33.40;57.87
34586;BME280;20816;50.950;11.108;2023-06-22T12:14:23;98330.66;;;33.79;56.80
34586;BME280;20816;50.950;11.108;2023-06-22T12:16:50;98312.94;;;34.48;54.61
34586;BME280;20816;50.950;11.108;2023-06-22T12:19:17;98316.91;;;34.46;56.05
34586;BME280;20816;50.950;11.108;2023-06-22T12:21:44;98318.34;;;34.12;56.43
34586;BME280;20816;50.950;11.108;2023-06-22T12:24:12;98303.41;;;34.08;56.00
34586;BME280;20816;50.950;11.108;2023-06-22T12:26:39;98303.72;;;34.35;55.04
34586;BME280;20816;50.950;11.108;2023-06-22T12:29:06;98299.53;;;34.03;56.43
34586;BME280;20816;50.950;11.108;2023-06-22T12:31:32;98292.28;;;34.24;56.51
34586;BME280;20816;50.950;11.108;2023-06-22T12:33:59;98290.38;;;34.40;56.59
34586;BME280;20816;50.950;11.108;2023-06-22T12:36:26;98274.69;;;34.12;55.56
34586;BME280;20816;50.950;11.108;2023-06-22T12:38:53;98272.97;;;34.26;55.63
34586;BME280;20816;50.950;11.108;2023-06-22T12:41:21;98272.44;;;34.52;54.91
34586;BME280;20816;50.950;11.108;2023-06-22T12:43:48;98265.22;;;34.08;55.53
34586;BME280;20816;50.950;11.108;2023-06-22T12:46:15;98261.97;;;34.19;55.61
34586;BME280;20816;50.950;11.108;2023-06-22T12:48:42;98267.84;;;33.87;56.28
34586;BME280;20816;50.950;11.108;2023-06-22T12:51:09;98264.16;;;33.80;56.89
34586;BME280;20816;50.950;11.108;2023-06-22T12:53:36;98274.00;;;33.89;56.63